This is the latest recevied weather packets stored in our database for station/object K2ATL. If no packets are shown the sender has not sent any weather packets the latest 1 day(s).
| Time | Temp. | Humidity | Pressure | Rain* | Wind** | Luminosity | Snow |
|---|---|---|---|---|---|---|---|
| 1836274826 | 21.67° C | 65% | 1104.8 hPa | 0 mm | 0.45 m/s, 63° | 0 W/m² | - |
| 1836274523 | 21.67° C | 65% | 1104.7 hPa | 0 mm | 0.45 m/s, 66° | 0 W/m² | - |
| 1836274377 | 21.67° C | 65% | 1104.6 hPa | 0 mm | 0.89 m/s, 74° | 0 W/m² | - |
| 1836274222 | 21.67° C | 65% | 1104.8 hPa | 0 mm | 0.89 m/s, 60° | 0 W/m² | - |
| 1836273916 | 21.67° C | 65% | 1104.8 hPa | 0 mm | 0.45 m/s, 63° | 0 W/m² | - |
| 1778051532 | 18.33° C | 68% | 1098.6 hPa | 0 mm | 1.34 m/s, 140° | 0 W/m² | - |
| 1778051229 | 18.33° C | 68% | 1098.6 hPa | 0 mm | 3.58 m/s, 134° | 0 W/m² | - |
| 1778050926 | 18.33° C | 68% | 1098.4 hPa | 0 mm | 1.34 m/s, 134° | 0 W/m² | - |
| 1778050624 | 18.33° C | 67% | 1098.5 hPa | 0 mm | 3.13 m/s, 131° | 0 W/m² | - |
| 1778050320 | 18.33° C | 67% | 1098.6 hPa | 0 mm | 3.58 m/s, 134° | 0 W/m² | - |
| 1778050017 | 18.33° C | 66% | 1098.6 hPa | 0 mm | 2.68 m/s, 156° | 0 W/m² | - |
| 1778049713 | 18.33° C | 65% | 1098.8 hPa | 0 mm | 0.89 m/s, 147° | 0 W/m² | - |
| 1778049411 | 18.33° C | 65% | 1098.7 hPa | 0 mm | 1.34 m/s, 127° | 0 W/m² | - |
| 1778049108 | 18.89° C | 65% | 1099 hPa | 0 mm | 1.79 m/s, 138° | 0 W/m² | - |
| 1778048806 | 18.89° C | 64% | 1098.6 hPa | 0 mm | 1.34 m/s, 137° | 0 W/m² | - |
| 1778048503 | 18.89° C | 64% | 1098.7 hPa | 0 mm | 1.34 m/s, 125° | 0 W/m² | - |
| 1778048199 | 18.89° C | 63% | 1098.9 hPa | 0 mm | 0.45 m/s, 130° | 0 W/m² | - |
| 1778047897 | 18.89° C | 63% | 1098.9 hPa | 0 mm | 3.58 m/s, 137° | 0 W/m² | - |
| 1778047595 | 18.89° C | 62% | 1099.1 hPa | 0 mm | 1.34 m/s, 128° | 0 W/m² | - |
| 1778047291 | 18.89° C | 62% | 1099.3 hPa | 0 mm | 2.68 m/s, 132° | 0 W/m² | - |
| 1778046989 | 18.89° C | 62% | 1099.1 hPa | 0 mm | 3.58 m/s, 143° | 0 W/m² | - |
| 1778046685 | 18.89° C | 61% | 1099.4 hPa | 0 mm | 1.79 m/s, 140° | 0 W/m² | - |
| 1778046382 | 18.89° C | 60% | 1099.1 hPa | 0 mm | 0.89 m/s, 145° | 0 W/m² | - |
| 1778046078 | 18.89° C | 60% | 1099.1 hPa | 0 mm | 0.89 m/s, 132° | 0 W/m² | - |
| 1778045776 | 18.89° C | 60% | 1099.2 hPa | 0 mm | 3.58 m/s, 126° | 0 W/m² | - |
* Rain latest hour (hover to see other rain measurements)
** Current wind speed in m/s (hover to see current wind gust speed)